Latest Weather Observations for Middle Point

IDD60801

Issued at 7:05 pm CST Wednesday 23 April 2014 (issued every 30 minutes, with the page automatically refreshed every 10 minutes)

About weather observations | Map of weather stations | Latest weather observations for NT | Other Formats
Station Details ID: 014041 Name: MIDDLE POINT Lat: -12.61 Lon: 131.30 Height: 14.1 m
Data from the previous 72 hours. | See also: Recent months at Middle Point
Date/Time
CST
Temp
°C
App
Temp
°C
Dew
Point
Rel
Hum
%
Delta-T
°C
Wind Press
QNH
hPa
Press
MSL
hPa
Rain
since 9 am
mm
Dir
 
Spd
km/h
Gust
km/h
Spd
kts
Gust
kts
23/07:00pm 27.5 32.4 24.6 84 2.0 N 7 7 4 4 1006.4 - 0.0
23/06:30pm 28.0 32.9 24.6 82 2.4 N 7 9 4 5 1006.1 1006.0 0.0
23/06:00pm 30.2 34.6 24.4 71 4.1 NNE 9 15 5 8 1005.8 1005.7 0.0
23/05:30pm 30.9 33.8 23.8 66 4.9 N 15 19 8 10 1005.2 1005.1 0.0
23/05:00pm 30.6 34.5 24.3 69 4.4 N 11 15 6 8 1005.0 - 0.0
23/04:30pm 32.6 36.1 22.1 54 7.2 ESE 7 11 4 6 1004.8 1004.7 0.0
23/04:00pm 33.0 35.9 21.8 51 7.6 SE 9 13 5 7 1004.7 - 0.0
23/03:30pm 33.8 35.8 21.6 49 8.3 SE 13 19 7 10 1004.8 1004.7 0.0
23/03:00pm 33.6 36.1 21.1 48 8.4 SE 9 15 5 8 1005.2 1005.1 0.0
23/02:30pm 33.3 35.3 21.5 50 8.0 ESE 13 19 7 10 1005.7 1005.6 0.0
23/02:00pm 33.5 34.6 21.3 48 8.2 ESE 17 26 9 14 1006.1 - 0.0
23/01:30pm 33.2 34.2 21.0 48 8.2 SE 17 30 9 16 1006.5 1006.4 0.0
23/01:00pm 33.0 33.4 20.9 49 8.1 SE 20 30 11 16 1006.8 - 0.0
23/12:30pm 33.0 32.3 20.2 47 8.5 SE 24 35 13 19 1007.0 1006.9 0.0
23/12:00pm 32.5 33.2 20.4 49 8.1 S 17 22 9 12 1007.5 1007.4 0.0
23/11:30am 31.9 33.8 21.4 53 7.1 SSE 13 22 7 12 1008.3 1008.2 0.0
23/11:00am 31.4 33.5 22.4 59 6.1 S 15 20 8 11 1008.7 - 0.0
23/10:30am 30.2 32.1 22.1 62 5.5 S 15 20 8 11 1009.1 1009.0 0.0
23/10:00am 29.1 30.5 21.8 64 4.9 S 17 20 9 11 1009.4 - 0.0
23/09:30am 28.5 30.1 21.5 66 4.7 S 15 22 8 12 1009.5 1009.4 0.0
23/09:00am 27.2 29.7 21.7 72 3.7 S 11 15 6 8 1009.7 1009.6 0.0
23/08:30am 26.3 29.2 21.7 76 3.1 S 9 11 5 6 1009.6 1009.5 0.0
23/08:00am 24.8 28.8 22.1 85 1.8 S 4 7 2 4 1009.6 - 0.0
23/07:30am 23.0 26.5 21.8 93 0.8 S 6 6 3 3 1009.2 1009.1 0.0
23/07:00am 22.1 26.3 20.9 93 0.8 CALM 0 0 0 0 1009.2 - 0.0
23/06:30am 22.2 26.3 20.8 92 0.9 CALM 0 0 0 0 1008.9 1008.8 0.0
23/06:00am 22.2 26.3 20.8 92 0.9 SSE 0 0 0 0 1008.8 1008.7 0.0
23/05:30am 22.3 26.4 20.8 91 1.0 CALM 0 0 0 0 1008.5 1008.4 0.0
23/05:00am 22.8 27.2 21.3 91 1.0 CALM 0 0 0 0 1008.3 - 0.0
23/04:30am 22.9 27.2 21.2 90 1.1 CALM 0 0 0 0 1008.2 1008.1 0.0
23/04:00am 23.2 27.6 21.3 89 1.2 CALM 0 0 0 0 1008.0 - 0.0
23/03:30am 23.2 27.5 21.1 88 1.4 CALM 0 2 0 1 1007.8 1007.7 0.0
23/03:00am 23.9 27.1 21.2 85 1.8 S 6 9 3 5 1007.7 1007.6 0.0
23/02:30am 23.6 26.5 21.1 86 1.6 SSW 7 9 4 5 1008.0 1007.9 0.0
23/02:00am 24.7 27.8 21.4 82 2.2 ESE 7 7 4 4 1008.0 - 0.0
23/01:30am 23.9 28.0 22.2 90 1.1 S 4 9 2 5 1008.5 1008.4 0.0
23/01:00am 23.7 27.7 22.1 91 1.1 SW 4 6 2 3 1009.1 - 0.0
23/12:30am 24.1 28.1 22.0 88 1.4 SW 4 6 2 3 1009.4 1009.3 0.0
23/12:00am 24.4 29.4 22.5 89 1.3 SW 0 0 0 0 1009.6 1009.5 0.0
 
Date/Time
CST
Temp
°C
App
Temp
°C
Dew
Point
Rel
Hum
%
Delta-T
°C
Wind Press
QNH
hPa
Press
MSL
hPa
Rain
since 9 am
mm
Dir
 
Spd
km/h
Gust
km/h
Spd
kts
Gust
kts
22/11:30pm 24.4 29.4 22.5 89 1.3 CALM 0 0 0 0 1010.0 1009.9 0.0
22/11:00pm 24.5 29.4 22.4 88 1.4 CALM 0 0 0 0 1010.1 - 0.0
22/10:30pm 24.3 29.2 22.4 89 1.3 CALM 0 2 0 1 1010.0 1009.9 0.0
22/10:00pm 24.7 29.4 22.6 88 1.4 WNW 2 7 1 4 1009.8 - 0.0
22/09:30pm 24.8 29.7 22.3 86 1.7 CALM 0 0 0 0 1009.3 1009.2 0.0
22/09:00pm 25.9 30.6 22.6 82 2.2 NE 2 6 1 3 1009.1 1009.0 0.0
22/08:30pm 25.9 29.6 22.6 82 2.2 NE 7 9 4 5 1009.1 1009.0 0.0
22/08:00pm 25.9 31.4 23.4 86 1.7 CALM 0 0 0 0 1008.7 - 0.0
22/07:30pm 26.8 32.2 23.3 81 2.4 CALM 0 2 0 1 1008.1 1008.0 0.0
22/07:00pm 28.3 33.6 23.0 73 3.6 CALM 0 0 0 0 1007.8 - 0.0
22/06:30pm 30.7 35.4 22.6 62 5.5 SSE 2 4 1 2 1007.5 1007.4 0.0
22/06:00pm 31.9 35.6 21.4 53 7.1 SSE 4 4 2 2 1007.2 1007.1 0.0
22/05:30pm 32.6 35.1 19.8 46 8.5 ESE 6 9 3 5 1006.9 1006.8 0.0
22/05:00pm 32.7 34.3 19.9 46 8.5 SE 11 15 6 8 1006.6 - 0.0
22/04:30pm 33.2 34.1 19.3 44 9.2 SE 13 17 7 9 1006.3 1006.2 0.0
22/04:00pm 33.2 33.2 18.9 42 9.4 SE 17 24 9 13 1006.1 - 0.0
22/03:30pm 33.7 34.0 19.7 43 9.3 SE 17 26 9 14 1006.3 1006.2 0.0
22/03:00pm 33.1 34.2 19.6 45 8.9 ESE 13 19 7 10 1006.6 1006.5 0.0
22/02:30pm 32.8 33.3 19.3 45 8.9 ESE 15 20 8 11 1007.0 1006.9 0.0
22/02:00pm 32.5 34.7 20.4 49 8.1 ESE 9 17 5 9 1007.6 - 0.0
22/01:30pm 31.9 33.9 20.8 51 7.4 E 11 19 6 10 1008.2 1008.1 0.0
22/01:00pm 32.1 34.0 21.3 53 7.3 ESE 13 20 7 11 1008.6 - 0.0
22/12:30pm 31.6 32.3 20.5 51 7.4 ESE 17 22 9 12 1009.3 1009.2 0.0
22/12:00pm 31.0 32.8 21.2 56 6.6 ESE 13 20 7 11 1009.9 1009.8 0.0
22/11:30am 30.4 32.9 21.8 60 5.8 ESE 11 19 6 10 1010.9 1010.7 0.0
22/11:00am 29.5 31.8 21.4 61 5.4 SE 11 15 6 8 1011.3 - 0.0
22/10:30am 29.2 32.2 21.9 64 4.9 SE 9 15 5 8 1011.6 1011.4 0.0
22/10:00am 28.3 31.1 21.6 67 4.5 SE 9 13 5 7 1011.7 - 0.0
22/09:30am 27.5 29.5 21.5 70 4.0 SE 13 19 7 10 1011.7 1011.5 0.0
22/09:00am 27.0 30.4 22.0 74 3.4 ESE 7 13 4 7 1011.6 1011.4 0.0
22/08:30am 26.2 29.7 21.8 77 2.9 SE 6 11 3 6 1011.4 1011.2 0.0
22/08:00am 25.9 29.6 22.6 82 2.2 ESE 7 11 4 6 1011.2 - 0.0
22/07:30am 24.6 28.6 22.8 90 1.2 SE 6 9 3 5 1010.7 1010.6 0.0
22/07:00am 23.4 27.0 22.0 92 0.9 SE 6 7 3 4 1010.4 - 0.0
22/06:30am 23.3 26.8 21.9 92 0.9 SSE 6 6 3 3 1010.0 1009.9 0.0
22/06:00am 23.6 27.3 22.2 92 0.9 SSE 6 7 3 4 1009.7 1009.6 0.0
22/05:30am 23.4 27.7 22.0 92 0.9 SSE 2 4 1 2 1009.5 1009.4 0.0
22/05:00am 23.6 27.9 22.0 91 1.1 SSW 2 4 1 2 1009.3 - 0.0
22/04:30am 23.3 27.9 21.7 91 1.1 CALM 0 2 0 1 1009.2 1009.1 0.0
22/04:00am 23.7 28.5 22.1 91 1.1 CALM 0 4 0 2 1009.2 - 0.0
22/03:30am 23.6 28.3 22.0 91 1.1 CALM 0 0 0 0 1009.1 1009.0 0.0
22/03:00am 23.4 28.0 21.8 91 1.1 CALM 0 0 0 0 1009.2 1009.1 0.0
22/02:30am 23.6 28.3 22.0 91 1.1 CALM 0 0 0 0 1009.3 1009.2 0.0
22/02:00am 23.8 28.3 22.2 91 1.1 NE 2 6 1 3 1009.6 - 0.0
22/01:30am 24.0 28.9 22.3 90 1.1 CALM 0 0 0 0 1010.0 1009.9 0.0
22/01:00am 24.3 28.6 22.6 90 1.1 NW 4 13 2 7 1010.3 - 0.0
22/12:30am 24.4 29.0 22.5 89 1.3 WSW 2 6 1 3 1010.3 1010.2 0.0
22/12:00am 24.6 29.0 22.8 90 1.2 SSW 4 6 2 3 1010.5 1010.4 0.0
 
Date/Time
CST
Temp
°C
App
Temp
°C
Dew
Point
Rel
Hum
%
Delta-T
°C
Wind Press
QNH
hPa
Press
MSL
hPa
Rain
since 9 am
mm
Dir
 
Spd
km/h
Gust
km/h
Spd
kts
Gust
kts
21/11:30pm 24.7 29.5 22.8 89 1.3 SSW 2 4 1 2 1010.7 1010.6 0.0
21/11:00pm 24.4 28.6 22.5 89 1.3 SW 4 6 2 3 1010.4 - 0.0
21/10:30pm 25.0 29.9 23.1 89 1.3 SW 2 4 1 2 1010.4 1010.3 0.0
21/10:00pm 24.8 29.1 22.7 88 1.4 WSW 4 6 2 3 1010.3 - 0.0
21/09:30pm 25.2 29.8 23.1 88 1.4 WNW 4 6 2 3 1010.2 1010.1 0.0
21/09:00pm 25.4 29.9 22.9 86 1.7 NW 4 6 2 3 1010.2 1010.1 0.0
21/08:30pm 25.6 30.1 22.9 85 1.8 NW 4 6 2 3 1009.8 1009.7 0.0
21/08:00pm 26.2 30.3 22.9 82 2.2 NNW 6 7 3 4 1009.6 - 0.0
21/07:30pm 26.5 30.2 22.6 79 2.6 N 7 9 4 5 1009.5 1009.4 0.0
21/07:00pm 27.0 30.4 22.0 74 3.4 N 7 9 4 5 1009.2 - 0.0
21/06:30pm 28.6 31.9 21.9 67 4.5 NNE 7 9 4 5 1009.0 1008.9 0.0
21/06:00pm 30.1 33.4 21.5 60 5.8 NE 6 7 3 4 1008.8 1008.7 0.0
21/05:30pm 31.8 34.2 20.1 50 7.8 NNE 7 11 4 6 1008.6 1008.5 0.0
21/05:00pm 32.8 33.9 18.9 43 9.1 NE 11 17 6 9 1008.3 - 0.0
21/04:30pm 33.3 35.0 19.4 44 9.2 E 9 15 5 8 1008.2 1008.1 0.0
21/04:00pm 33.3 33.4 18.3 41 9.7 E 15 20 8 11 1008.1 - 0.0
21/03:30pm 33.4 33.4 17.1 37 10.4 E 13 17 7 9 1008.1 1008.0 0.0
21/03:00pm 32.9 34.2 17.5 39 9.9 ESE 7 13 4 7 1008.2 1008.1 0.0
21/02:30pm 33.3 33.5 19.4 44 9.2 ESE 17 24 9 13 1008.4 1008.3 0.0
21/02:00pm 33.1 33.3 18.5 42 9.5 ESE 15 19 8 10 1008.8 - 0.0
21/01:30pm 32.6 32.7 18.4 43 9.2 E 15 22 8 12 1009.2 1009.1 0.0
21/01:00pm 33.1 32.9 18.5 42 9.5 E 17 22 9 12 1009.3 - 0.0
21/12:30pm 32.8 32.8 18.2 42 9.5 E 15 20 8 11 1009.6 1009.5 0.0
21/12:00pm 32.1 31.1 17.6 42 9.3 E 19 22 10 12 1010.1 1010.0 0.0
21/11:30am 32.1 31.2 18.3 44 8.9 E 20 32 11 17 1010.4 1010.3 0.0
21/11:00am 31.4 30.3 18.7 46 8.2 E 22 32 12 17 1010.7 - 0.0
21/10:30am 30.8 30.9 19.2 50 7.6 E 17 26 9 14 1011.0 1010.8 0.0
21/10:00am 30.1 30.4 20.4 56 6.4 ESE 19 26 10 14 1011.1 - 0.0
21/09:30am 28.9 30.6 20.9 62 5.3 ESE 13 17 7 9 1010.9 1010.7 0.0
21/09:00am 27.8 30.9 22.1 71 3.8 SE 9 13 5 7 1010.9 1010.7 0.0
21/08:30am 26.1 29.7 22.4 80 2.5 SSE 7 9 4 5 1010.7 1010.6 0.0
21/08:00am 24.8 28.9 22.9 89 1.3 SSE 6 7 3 4 1010.5 - 0.0
21/07:30am 23.1 26.7 22.1 94 0.7 S 6 7 3 4 1010.2 1010.1 0.0
21/07:00am 21.8 24.6 20.4 92 0.9 SSW 6 7 3 4 1009.9 - 0.0
21/06:30am 21.8 25.3 20.3 91 1.0 SE 2 2 1 1 1009.4 1009.3 0.0
21/06:00am 22.3 25.6 20.8 91 1.0 SE 4 6 2 3 1009.1 1009.0 0.0
21/05:30am 22.3 26.4 20.8 91 1.0 CALM 0 0 0 0 1009.0 1008.9 0.0
21/05:00am 22.5 26.7 21.0 91 1.0 CALM 0 0 0 0 1009.0 - 0.0
21/04:30am 23.0 26.8 20.9 88 1.4 SSE 2 4 1 2 1009.0 1008.9 0.0
21/04:00am 23.6 27.1 21.1 86 1.6 SSE 4 6 2 3 1009.0 - 0.0
21/03:30am 23.8 27.0 21.3 86 1.6 SE 6 7 3 4 1009.1 1009.0 0.0
21/03:00am 24.0 27.4 21.7 87 1.5 SE 6 7 3 4 1008.9 1008.8 0.0
21/02:30am 24.3 27.6 21.8 86 1.7 SE 7 7 4 4 1009.1 1009.0 0.0
21/02:00am 25.0 28.9 22.5 86 1.7 SE 6 6 3 3 1009.4 - 0.0
21/01:30am 25.1 29.5 22.8 87 1.6 SE 4 6 2 3 1009.8 1009.7 0.0
21/01:00am 25.2 29.5 22.7 86 1.7 SE 4 6 2 3 1010.0 - 0.0
21/12:30am 25.2 29.4 22.5 85 1.8 ENE 4 4 2 2 1010.2 1010.1 0.0
21/12:00am 25.4 28.9 22.1 82 2.2 NE 7 11 4 6 1010.3 1010.2 0.0
 
Date/Time
CST
Temp
°C
App
Temp
°C
Dew
Point
Rel
Hum
%
Delta-T
°C
Wind Press
QNH
hPa
Press
MSL
hPa
Rain
since 9 am
mm
Dir
 
Spd
km/h
Gust
km/h
Spd
kts
Gust
kts
20/11:30pm 26.1 29.8 22.6 81 2.4 ENE 7 9 4 5 1010.4 1010.3 0.0
20/11:00pm 26.7 30.1 23.4 82 2.3 ENE 11 17 6 9 1010.5 - 0.0
20/10:30pm 26.0 30.3 24.2 90 1.2 E 9 13 5 7 1010.6 1010.5 0.0
20/10:00pm 25.6 30.8 23.5 88 1.4 N 2 4 1 2 1010.0 - 0.0
20/09:30pm 26.0 31.4 23.9 88 1.4 N 2 4 1 2 1010.0 1009.9 0.0
20/09:00pm 26.1 30.7 23.8 87 1.6 N 6 6 3 3 1009.7 1009.6 0.0
20/08:30pm 26.6 31.4 24.1 86 1.7 N 6 7 3 4 1009.5 1009.4 0.0
20/08:00pm 27.0 31.9 23.7 82 2.3 N 4 6 2 3 1009.3 - 0.0
20/07:30pm 27.3 32.0 24.0 82 2.3 N 6 7 3 4 1009.0 1008.9 0.0

Other Formats:

Comma delimited format used in spreadsheet applications
http://www.bom.gov.au/fwo/IDD60801/IDD60801.95121.axf

JavaScript Object Notation format (JSON) in row-major order
http://www.bom.gov.au/fwo/IDD60801/IDD60801.95121.json